首页
METAR-TAF:

METAR-TAF

机场 :

内利斯空军基地

Nellis, 内华达州, 美国

纬度: 36-14N, 经度: 115-02W, 海拔: 570米

当前天气观测

该预报发布于1小时和24分钟前的09:58 UTC
风速2节,风向
温度 7°C
湿度 57%
气压 1027 hPa
能見度: 16.1公里
天空无云

METAR: KLSV 270958Z 35002KT 10SM CLR 07/M01 A3034 RMK AO2A SLP273 WND DATA ESTMD T00671015 $

时间: 03:22 (11:22 UTC)

预报

该预报发布于4小时和22分钟前的07:00 UTC
预报有效从27日的 07点(UTC)到 28日的 13点(UTC)
风速6节,风向多变
能见度10公里或以上
天空无云
成为
从 27日的 16点(UTC)到 27日的 17点(UTC)
风速6节,风向北转东北
能见度10公里或以上
天空无云

TAF: KLSV 270700Z 2707/2813 VRB06KT 9999 SKC QNH3035INS BECMG 2716/2717 03006KT 9999 SKC QNH3022INS TX20/2723Z TN04/2714Z

超过4000个机场的气象观测和天气预报(METAR&TAF报告)。

可查询的气象台以黄色和红色小点在地图上表示。

将鼠标移到小点上方,可查看气象台名称。

然后点击查看天气观测和预报。

如需切换地图:点击带黑十字的绿色按钮放大地图;点击带横线的绿色按钮缩小地图;或者点击绿色箭头查看邻近地区的地图。


METAR-TAF: